Time;durP1;ratioP1;P1;durP2;ratioP2;P2;SDS_P1;SDS_P2;PMS_P1;PMS_P2;Temp;Humidity;BMP_temperature;BMP_pressure;BME280_temperature;BME280_humidity;BME280_pressure;Samples;Min_cycle;Max_cycle;Signal;HPM_P1;HPM_P2
2022/03/10 04:02:38;;;;;;;29.10;16.43;;;-2.60;99.90;;;;;;4931278;29;20705;-76
2022/03/10 04:05:05;;;;;;;24.47;16.07;;;-2.60;99.90;;;;;;4952328;29;20179;-77
2022/03/10 04:07:31;;;;;;;25.67;17.03;;;-2.60;99.90;;;;;;4935262;29;20202;-76
2022/03/10 04:09:57;;;;;;;23.47;16.50;;;-2.50;99.90;;;;;;4936520;29;20210;-76
2022/03/10 04:12:23;;;;;;;19.00;15.57;;;-2.60;99.90;;;;;;4952365;29;20213;-75
2022/03/10 04:14:49;;;;;;;26.83;17.70;;;-2.70;99.90;;;;;;4970744;23;20935;-75
2022/03/10 04:17:15;;;;;;;25.83;15.63;;;-2.80;99.90;;;;;;4933967;29;20183;-76
2022/03/10 04:19:42;;;;;;;20.47;15.97;;;-3.00;99.90;;;;;;4935687;29;20281;-76
2022/03/10 04:22:08;;;;;;;25.17;16.07;;;-3.00;99.90;;;;;;4934354;29;20268;-76
2022/03/10 04:24:34;;;;;;;23.80;17.00;;;-3.00;99.90;;;;;;4934266;29;20190;-76
2022/03/10 04:27:00;;;;;;;21.37;15.67;;;-3.10;99.90;;;;;;4934008;29;20182;-76
2022/03/10 04:29:26;;;;;;;27.60;17.67;;;-3.10;99.90;;;;;;4934300;29;20193;-76
2022/03/10 04:31:53;;;;;;;23.10;17.47;;;-3.00;99.90;;;;;;4933570;29;20171;-76
2022/03/10 04:34:18;;;;;;;24.83;16.83;;;-2.90;99.90;;;;;;4934082;29;20193;-76
2022/03/10 04:36:45;;;;;;;25.30;16.07;;;-2.90;99.90;;;;;;4933823;29;20206;-76
2022/03/10 04:39:10;;;;;;;30.87;17.27;;;-2.80;99.90;;;;;;4934452;29;20189;-76
2022/03/10 04:41:36;;;;;;;20.93;14.93;;;-2.70;99.90;;;;;;4933631;29;20673;-76
2022/03/10 04:44:02;;;;;;;21.80;16.80;;;-2.80;99.90;;;;;;4935287;29;20186;-76
2022/03/10 04:46:29;;;;;;;24.27;16.63;;;-2.80;99.90;;;;;;4933902;29;20738;-76
2022/03/10 04:48:55;;;;;;;25.47;16.73;;;-2.80;99.90;;;;;;4934888;29;20557;-76
2022/03/10 04:51:20;;;;;;;23.27;17.07;;;-2.90;99.90;;;;;;4933624;29;20210;-76
2022/03/10 04:53:46;;;;;;;20.17;16.77;;;-2.90;99.90;;;;;;4933553;29;20281;-76
2022/03/10 04:56:13;;;;;;;25.97;16.97;;;-2.90;99.90;;;;;;4934680;29;20198;-76
2022/03/10 04:58:39;;;;;;;22.40;16.37;;;-2.90;99.90;;;;;;4933355;29;20616;-76
2022/03/10 05:01:04;;;;;;;22.17;15.43;;;-2.90;99.90;;;;;;4934599;29;20273;-76
2022/03/10 05:03:33;;;;;;;20.20;15.63;;;-2.90;99.90;;;;;;4933357;29;20618;-76
2022/03/10 05:06:00;;;;;;;28.00;15.47;;;-2.90;99.90;;;;;;4933472;29;20717;-76
2022/03/10 05:08:26;;;;;;;27.07;16.23;;;-2.90;99.90;;;;;;4934970;29;20673;-76
2022/03/10 05:10:52;;;;;;;20.43;15.37;;;-2.90;99.90;;;;;;4933500;29;20289;-76
2022/03/10 05:13:18;;;;;;;20.63;15.53;;;-3.00;99.90;;;;;;4935326;29;20265;-76
2022/03/10 05:15:43;;;;;;;18.67;15.10;;;-3.00;99.90;;;;;;4934737;29;20297;-76
2022/03/10 05:18:09;;;;;;;18.30;14.73;;;-3.00;99.90;;;;;;4935334;29;20186;-76
2022/03/10 05:20:35;;;;;;;26.53;16.27;;;-3.10;99.90;;;;;;4934095;29;20183;-76
2022/03/10 05:23:03;;;;;;;24.47;16.73;;;-3.10;99.90;;;;;;4935074;29;20198;-73
2022/03/10 05:25:34;;;;;;;16.80;14.80;;;-3.20;99.90;;;;;;4933493;29;20559;-73
2022/03/10 05:28:00;;;;;;;23.07;16.00;;;-3.20;99.90;;;;;;4926402;29;20201;-73
2022/03/10 05:30:26;;;;;;;20.00;15.57;;;-3.20;99.90;;;;;;4933873;29;20210;-74
2022/03/10 05:32:52;;;;;;;18.77;15.73;;;-3.20;99.90;;;;;;4933267;29;20197;-73
2022/03/10 05:35:17;;;;;;;24.73;15.30;;;-3.10;99.90;;;;;;4933049;29;20202;-74
2022/03/10 05:37:46;;;;;;;23.27;16.30;;;-3.00;99.90;;;;;;4934000;29;20562;-74
2022/03/10 05:40:15;;;;;;;22.97;16.57;;;-3.00;99.90;;;;;;4933752;29;20266;-73
2022/03/10 05:42:42;;;;;;;21.43;17.93;;;-2.90;99.90;;;;;;4932469;29;20206;-74
2022/03/10 05:45:09;;;;;;;22.53;16.93;;;-2.90;99.90;;;;;;4933984;29;20199;-73
2022/03/10 05:47:36;;;;;;;20.53;17.33;;;-2.90;99.90;;;;;;4932310;29;20186;-73
2022/03/10 05:50:03;;;;;;;28.03;16.63;;;-2.90;99.90;;;;;;4932230;29;20261;-74
2022/03/10 05:52:29;;;;;;;29.77;25.47;;;-2.90;99.90;;;;;;4932560;29;20214;-73
2022/03/10 05:54:55;;;;;;;24.73;16.87;;;-2.90;99.90;;;;;;4933641;29;20229;-74
2022/03/10 05:57:21;;;;;;;27.20;16.53;;;-2.80;99.90;;;;;;4934273;29;20654;-73
2022/03/10 05:59:47;;;;;;;25.37;16.17;;;-2.80;99.90;;;;;;4933902;29;20577;-75
2022/03/10 06:02:16;;;;;;;23.70;15.93;;;-2.70;99.90;;;;;;4933130;29;20750;-73
2022/03/10 06:04:41;;;;;;;22.20;15.90;;;-2.70;99.90;;;;;;4932272;29;20194;-73
2022/03/10 06:07:07;;;;;;;22.87;17.67;;;-2.70;99.90;;;;;;4933568;29;20194;-73
2022/03/10 06:09:33;;;;;;;22.30;17.20;;;-2.70;99.90;;;;;;4933889;29;20189;-73
2022/03/10 06:11:59;;;;;;;27.60;21.57;;;-2.70;99.90;;;;;;4932965;29;20241;-73
2022/03/10 06:14:25;;;;;;;26.20;17.53;;;-2.60;99.90;;;;;;4935259;29;20182;-73
2022/03/10 06:16:51;;;;;;;26.53;18.67;;;-2.60;99.90;;;;;;4938002;29;20233;-73
2022/03/10 06:19:17;;;;;;;22.83;17.50;;;-2.50;99.90;;;;;;4931700;29;20221;-72
2022/03/10 06:21:43;;;;;;;28.67;18.20;;;-2.40;99.90;;;;;;4929373;29;20217;-71
2022/03/10 06:24:10;;;;;;;23.93;17.97;;;-2.40;99.90;;;;;;4931275;29;20186;-72
2022/03/10 06:26:36;;;;;;;22.97;16.87;;;-2.30;99.90;;;;;;4938661;29;20233;-72
2022/03/10 06:29:05;;;;;;;23.17;17.13;;;-2.20;99.90;;;;;;4938757;29;20661;-72
2022/03/10 06:31:31;;;;;;;21.17;15.93;;;-2.30;99.90;;;;;;4937060;29;20210;-68
2022/03/10 06:33:58;;;;;;;22.63;17.10;;;-2.10;99.90;;;;;;4937453;29;20325;-73
2022/03/10 06:36:24;;;;;;;26.17;17.90;;;-2.00;99.90;;;;;;4935368;29;20289;-71
2022/03/10 06:38:50;;;;;;;30.17;18.27;;;-2.00;99.90;;;;;;4914700;29;20183;-75
2022/03/10 06:41:16;;;;;;;36.93;31.10;;;-1.90;99.90;;;;;;4924987;29;20186;-71
2022/03/10 06:43:42;;;;;;;24.50;17.10;;;-1.90;99.90;;;;;;4934344;29;20179;-72
2022/03/10 06:46:08;;;;;;;24.60;16.67;;;-1.80;99.90;;;;;;4934749;29;20273;-71
2022/03/10 06:48:34;;;;;;;37.70;18.57;;;-1.60;99.90;;;;;;4935136;29;20655;-74
2022/03/10 06:51:01;;;;;;;26.23;18.23;;;-1.50;99.90;;;;;;4935932;29;20238;-71
2022/03/10 06:53:26;;;;;;;32.13;20.70;;;-1.30;99.90;;;;;;4937015;29;20261;-72
2022/03/10 06:55:52;;;;;;;30.10;23.63;;;-1.30;99.90;;;;;;4935723;29;20206;-72
2022/03/10 06:58:18;;;;;;;38.13;28.73;;;-1.10;99.90;;;;;;4934946;29;20717;-71
2022/03/10 07:00:44;;;;;;;23.50;15.70;;;-0.90;99.90;;;;;;4936763;29;20193;-71
2022/03/10 07:03:10;;;;;;;29.93;16.20;;;-0.60;99.90;;;;;;4936671;29;20638;-71
2022/03/10 07:05:36;;;;;;;22.63;17.30;;;-0.30;99.90;;;;;;4936989;29;20213;-71
2022/03/10 07:08:02;;;;;;;23.20;16.70;;;0.00;99.90;;;;;;4934702;29;20184;-71
2022/03/10 07:10:28;;;;;;;26.13;17.23;;;0.90;99.90;;;;;;4936604;29;20202;-72
2022/03/10 07:12:54;;;;;;;26.80;20.23;;;1.60;99.90;;;;;;4936821;29;20178;-72
2022/03/10 07:15:21;;;;;;;25.23;17.17;;;2.40;99.90;;;;;;4934914;29;20293;-72
2022/03/10 07:17:46;;;;;;;24.53;15.87;;;3.10;99.90;;;;;;4935867;29;20183;-72
2022/03/10 07:20:14;;;;;;;19.57;14.47;;;3.70;99.90;;;;;;4934353;29;20182;-72
2022/03/10 07:22:40;;;;;;;22.70;16.33;;;4.10;99.90;;;;;;4935995;29;20269;-73
2022/03/10 07:25:08;;;;;;;17.60;14.87;;;4.50;99.90;;;;;;4935126;29;20210;-73
2022/03/10 07:27:35;;;;;;;20.50;16.77;;;4.90;99.90;;;;;;4935676;29;20217;-74
2022/03/10 07:30:01;;;;;;;18.30;14.45;;;5.10;99.90;;;;;;4935019;29;20194;-73
2022/03/10 07:32:27;;;;;;;18.63;14.07;;;5.60;99.90;;;;;;4935208;29;20422;-73
2022/03/10 07:34:53;;;;;;;18.33;13.33;;;6.00;99.90;;;;;;4936213;29;20222;-73
2022/03/10 07:37:19;;;;;;;16.53;14.10;;;6.20;99.90;;;;;;4935678;29;20213;-73
2022/03/10 07:39:45;;;;;;;20.10;15.80;;;6.40;99.90;;;;;;4936138;29;20197;-73
2022/03/10 07:42:11;;;;;;;20.43;15.70;;;6.50;99.90;;;;;;4935922;29;20178;-73
2022/03/10 07:44:37;;;;;;;19.43;15.73;;;6.80;99.70;;;;;;4935950;29;20189;-73
2022/03/10 07:47:03;;;;;;;21.47;15.67;;;7.10;98.80;;;;;;4934304;29;20202;-73
2022/03/10 07:49:29;;;;;;;17.13;15.00;;;7.30;97.70;;;;;;4935754;29;20279;-73
2022/03/10 07:51:56;;;;;;;17.10;13.47;;;7.50;97.00;;;;;;4934618;29;20300;-73
2022/03/10 07:54:22;;;;;;;15.97;13.57;;;7.30;96.30;;;;;;4930442;29;20179;-73
2022/03/10 07:56:48;;;;;;;25.80;16.50;;;7.20;96.60;;;;;;4915870;29;20179;-73
2022/03/10 07:59:14;;;;;;;26.83;17.13;;;7.30;96.40;;;;;;4933397;29;20210;-73
2022/03/10 08:01:40;;;;;;;21.07;15.87;;;7.40;96.10;;;;;;4936044;29;20213;-73
2022/03/10 08:04:06;;;;;;;21.30;15.20;;;7.60;95.50;;;;;;4938075;29;20185;-72
2022/03/10 08:06:32;;;;;;;16.97;15.07;;;7.80;95.20;;;;;;4936613;29;20289;-72
2022/03/10 08:08:58;;;;;;;20.47;14.90;;;8.20;95.20;;;;;;4935426;29;20190;-73
2022/03/10 08:11:24;;;;;;;20.30;14.80;;;8.60;93.50;;;;;;4935466;29;20316;-73
2022/03/10 08:13:51;;;;;;;19.17;14.63;;;8.90;93.30;;;;;;4934157;29;20620;-73
2022/03/10 08:16:17;;;;;;;17.93;13.53;;;9.30;91.90;;;;;;4935296;29;20209;-73
2022/03/10 08:18:43;;;;;;;19.43;14.17;;;9.60;91.30;;;;;;4934956;29;20726;-73
2022/03/10 08:21:09;;;;;;;20.33;15.17;;;9.80;90.20;;;;;;4934746;29;20186;-74
2022/03/10 08:23:35;;;;;;;21.57;13.23;;;9.90;90.00;;;;;;4934366;29;20693;-74
2022/03/10 08:26:00;;;;;;;15.70;12.70;;;10.30;89.00;;;;;;4934237;29;20219;-74
2022/03/10 08:28:26;;;;;;;15.47;13.23;;;10.40;86.80;;;;;;4934527;29;20189;-73
2022/03/10 08:30:52;;;;;;;20.77;12.60;;;10.20;86.80;;;;;;4935171;29;20210;-72
2022/03/10 08:33:18;;;;;;;15.03;12.40;;;10.50;86.60;;;;;;4933858;29;20642;-73
2022/03/10 08:35:44;;;;;;;15.50;13.90;;;11.00;84.20;;;;;;4934766;29;20680;-73
2022/03/10 08:38:11;;;;;;;15.33;12.60;;;11.10;82.70;;;;;;4933860;29;20182;-73
2022/03/10 08:40:37;;;;;;;16.57;12.30;;;11.60;82.00;;;;;;4935729;29;20252;-73
2022/03/10 08:43:02;;;;;;;15.93;13.10;;;12.00;78.80;;;;;;4934909;29;20217;-73
2022/03/10 08:45:30;;;;;;;18.27;13.97;;;12.00;76.80;;;;;;4934926;29;20720;-74
2022/03/10 08:47:56;;;;;;;17.13;14.20;;;11.90;76.40;;;;;;4924575;29;20219;-74
2022/03/10 08:50:22;;;;;;;17.30;12.50;;;12.00;75.70;;;;;;4923341;29;20277;-74
2022/03/10 08:52:49;;;;;;;14.07;12.07;;;12.20;76.30;;;;;;4914133;29;20182;-75
2022/03/10 08:55:15;;;;;;;14.87;12.37;;;12.30;74.20;;;;;;4915340;29;20211;-74
2022/03/10 08:57:41;;;;;;;18.77;13.47;;;12.10;75.20;;;;;;4920899;29;20186;-73
2022/03/10 09:00:09;;;;;;;18.33;13.93;;;12.30;75.70;;;;;;4934329;29;20175;-73
2022/03/10 09:02:35;;;;;;;21.17;13.97;;;12.60;73.40;;;;;;4933209;29;20273;-74
2022/03/10 09:05:01;;;;;;;16.77;13.50;;;12.80;72.40;;;;;;4934207;29;20297;-73
2022/03/10 09:07:26;;;;;;;18.57;15.50;;;13.00;72.60;;;;;;4933753;29;20191;-74
2022/03/10 09:09:52;;;;;;;15.20;12.63;;;13.40;68.10;;;;;;4933243;29;20225;-74
2022/03/10 09:12:19;;;;;;;15.20;13.90;;;13.50;69.10;;;;;;4933609;29;20218;-74
2022/03/10 09:14:45;;;;;;;16.03;14.53;;;14.10;66.10;;;;;;4933023;29;20233;-74
2022/03/10 09:17:10;;;;;;;14.10;12.63;;;14.40;63.70;;;;;;4933942;29;20190;-75
2022/03/10 09:19:36;;;;;;;11.90;10.70;;;14.40;60.70;;;;;;4933919;29;20182;-77
2022/03/10 09:22:02;;;;;;;12.47;9.60;;;14.40;59.20;;;;;;4934621;29;20190;-75
2022/03/10 09:24:30;;;;;;;14.03;10.83;;;14.30;58.40;;;;;;4932932;29;20208;-73
2022/03/10 09:26:56;;;;;;;16.83;11.00;;;14.10;59.40;;;;;;4934013;29;20225;-74
2022/03/10 09:29:22;;;;;;;11.53;10.33;;;14.00;59.40;;;;;;4933044;29;20280;-73
2022/03/10 09:31:48;;;;;;;15.03;10.43;;;14.20;58.90;;;;;;4933017;29;20218;-74
2022/03/10 09:34:14;;;;;;;9.47;8.50;;;14.60;59.10;;;;;;4934146;29;20194;-74
2022/03/10 09:36:40;;;;;;;13.97;8.53;;;15.20;56.30;;;;;;4934226;29;20321;-74
2022/03/10 09:39:06;;;;;;;13.30;8.20;;;15.50;55.30;;;;;;4932471;29;20186;-74
2022/03/10 09:41:33;;;;;;;9.07;7.53;;;15.50;51.70;;;;;;4932949;29;20593;-68
2022/03/10 09:44:00;;;;;;;10.00;9.10;;;15.40;53.30;;;;;;4932738;29;20183;-68
2022/03/10 09:46:26;;;;;;;11.33;10.43;;;15.30;51.40;;;;;;4933564;29;20218;-68
2022/03/10 09:48:54;;;;;;;10.57;9.67;;;15.40;51.00;;;;;;4931829;29;20182;-68
2022/03/10 09:51:25;;;;;;;7.70;7.10;;;15.80;51.40;;;;;;4933576;29;20286;-68
2022/03/10 09:53:51;;;;;;;7.43;6.70;;;15.80;49.00;;;;;;4943149;29;20237;-73
2022/03/10 09:56:20;;;;;;;9.77;7.80;;;15.40;48.60;;;;;;4944529;28;20199;-74
2022/03/10 09:58:46;;;;;;;10.47;8.50;;;15.40;49.00;;;;;;4932149;29;20658;-73
2022/03/10 10:01:11;;;;;;;6.33;5.83;;;15.70;49.10;;;;;;4934094;29;20268;-73
2022/03/10 10:03:38;;;;;;;6.67;6.10;;;16.20;47.40;;;;;;4932553;29;20360;-73
2022/03/10 10:06:04;;;;;;;7.40;6.83;;;15.90;47.40;;;;;;4933627;29;20198;-73
2022/03/10 10:08:31;;;;;;;8.00;7.30;;;15.80;47.60;;;;;;4933297;29;20201;-74
2022/03/10 10:11:00;;;;;;;6.77;6.17;;;16.30;47.20;;;;;;4933853;29;20253;-75
2022/03/10 10:13:31;;;;;;;7.70;7.00;;;16.40;46.60;;;;;;4933714;29;20210;-73
2022/03/10 10:16:10;;;;;;;7.27;6.57;;;16.30;45.40;;;;;;4952727;23;20249;-75
2022/03/10 10:18:37;;;;;;;6.97;6.47;;;16.40;45.40;;;;;;4932924;29;20190;-75
2022/03/10 10:21:05;;;;;;;8.37;6.70;;;16.20;45.30;;;;;;4933738;29;20186;-75
2022/03/10 10:23:33;;;;;;;8.17;7.37;;;16.00;46.10;;;;;;4933550;29;20185;-75
2022/03/10 10:26:03;;;;;;;9.07;8.27;;;16.20;45.50;;;;;;4932496;29;20202;-75
2022/03/10 10:28:38;;;;;;;8.33;7.63;;;16.40;44.50;;;;;;4933237;29;20201;-75
2022/03/10 10:31:12;;;;;;;9.27;8.67;;;16.50;45.00;;;;;;4933881;29;20253;-75
2022/03/10 10:33:40;;;;;;;9.57;8.90;;;16.90;43.40;;;;;;4927539;29;20214;-75
2022/03/10 10:36:19;;;;;;;11.70;11.00;;;16.80;43.70;;;;;;4914791;29;20633;-74
2022/03/10 10:38:48;;;;;;;11.57;10.70;;;16.70;42.40;;;;;;4912971;29;20563;-75
2022/03/10 10:41:21;;;;;;;11.40;10.33;;;16.80;43.30;;;;;;4913438;29;20436;-75
2022/03/10 10:43:53;;;;;;;15.53;14.60;;;17.50;42.30;;;;;;4919586;29;20699;-75
2022/03/10 10:46:23;;;;;;;16.13;15.13;;;17.50;41.40;;;;;;4932045;29;20713;-75
2022/03/10 10:48:49;;;;;;;17.40;16.40;;;17.60;41.50;;;;;;4933005;29;20179;-75
2022/03/10 10:51:26;;;;;;;14.83;13.83;;;17.80;40.90;;;;;;4933483;29;20198;-75
2022/03/10 10:53:52;;;;;;;15.03;14.13;;;17.70;40.60;;;;;;4927763;29;20317;-74
2022/03/10 10:56:19;;;;;;;17.53;16.53;;;17.70;40.40;;;;;;4913668;29;20226;-75
2022/03/10 10:58:46;;;;;;;16.57;15.47;;;17.70;40.10;;;;;;4913246;29;20183;-75
2022/03/10 11:01:35;;;;;;;14.90;13.90;;;18.10;40.10;;;;;;4916319;29;20580;-75
2022/03/10 11:04:04;;;;;;;12.70;11.70;;;18.60;39.70;;;;;;4924199;29;20206;-75
2022/03/10 11:06:32;;;;;;;10.53;9.63;;;18.80;38.60;;;;;;4935662;29;20202;-75
2022/03/10 11:08:58;;;;;;;7.38;6.68;;;19.20;37.80;;;;;;4936421;29;20190;-74
2022/03/10 11:11:24;;;;;;;8.25;7.65;;;19.20;37.20;;;;;;4936039;29;20245;-74
2022/03/10 11:13:50;;;;;;;7.67;7.07;;;19.00;37.50;;;;;;4917732;29;20675;-74
2022/03/10 11:16:17;;;;;;;7.70;7.00;;;19.30;37.70;;;;;;4917592;29;20313;-74
2022/03/10 11:18:52;;;;;;;7.63;7.00;;;19.50;36.90;;;;;;4917419;29;20567;-74
2022/03/10 11:21:33;;;;;;;7.67;6.93;;;19.30;37.00;;;;;;4917628;29;20216;-73
2022/03/10 11:24:17;;;;;;;7.83;7.23;;;19.10;37.20;;;;;;4898900;29;20192;-74
2022/03/10 11:27:06;;;;;;;7.60;6.70;;;19.70;36.70;;;;;;4898927;29;20578;-76
2022/03/10 11:29:34;;;;;;;8.27;7.50;;;19.90;35.70;;;;;;4897594;29;20183;-75
2022/03/10 11:32:00;;;;;;;7.70;6.90;;;20.00;36.00;;;;;;4909840;29;20202;-74
2022/03/10 11:35:00;;;;;;;7.75;7.05;;;20.10;35.30;;;;;;4938587;29;20182;-74
2022/03/10 11:37:41;;;;;;;6.65;6.05;;;20.80;34.20;;;;;;4906214;29;20198;-73
2022/03/10 11:40:08;;;;;;;6.30;5.80;;;21.10;33.70;;;;;;4936588;29;20245;-74
2022/03/10 11:42:35;;;;;;;7.37;6.77;;;20.70;33.60;;;;;;4927151;29;20266;-74
2022/03/10 11:45:10;;;;;;;6.63;6.03;;;21.10;33.80;;;;;;4917485;29;20243;-74
2022/03/10 11:47:37;;;;;;;5.70;5.20;;;20.90;33.20;;;;;;4916010;29;20185;-75
2022/03/10 11:50:24;;;;;;;6.28;5.68;;;20.70;32.90;;;;;;4918906;29;20187;-74
2022/03/10 11:52:52;;;;;;;5.23;4.83;;;20.60;33.00;;;;;;4926385;29;20191;-74
2022/03/10 11:55:18;;;;;;;7.80;6.10;;;21.20;32.60;;;;;;4934783;29;20242;-74
2022/03/10 11:57:55;;;;;;;6.57;5.97;;;20.50;32.40;;;;;;4915444;29;20603;-74
2022/03/10 12:00:52;;;;;;;5.83;5.33;;;20.00;33.70;;;;;;4916743;29;20570;-74
2022/03/10 12:03:19;;;;;;;6.77;6.07;;;20.40;33.10;;;;;;4912939;29;20211;-74
2022/03/10 12:05:55;;;;;;;20.63;6.27;;;20.60;32.70;;;;;;4910613;29;20709;-74
2022/03/10 12:08:23;;;;;;;6.43;5.80;;;20.50;32.70;;;;;;4924347;29;20191;-74
2022/03/10 12:10:49;;;;;;;7.47;6.67;;;21.30;31.30;;;;;;4934858;29;20182;-74
2022/03/10 12:13:26;;;;;;;6.27;5.77;;;21.40;30.20;;;;;;4916633;29;20186;-74
2022/03/10 12:15:52;;;;;;;7.83;5.60;;;21.20;31.10;;;;;;4916839;29;20250;-73
2022/03/10 12:18:21;;;;;;;6.20;5.70;;;20.60;30.90;;;;;;4915111;29;20246;-74
2022/03/10 12:20:57;;;;;;;6.50;5.90;;;20.30;31.10;;;;;;4915221;29;20227;-74
2022/03/10 12:23:28;;;;;;;6.22;5.70;;;20.40;30.80;;;;;;4915341;29;20207;-74
2022/03/10 12:26:00;;;;;;;20.27;10.40;;;21.10;29.90;;;;;;4916676;29;20302;-74
2022/03/10 12:28:39;;;;;;;7.45;6.85;;;22.00;29.30;;;;;;4916117;29;20194;-74
2022/03/10 12:31:06;;;;;;;7.20;6.60;;;22.60;28.90;;;;;;4916717;29;20558;-74
2022/03/10 12:33:34;;;;;;;6.90;6.33;;;22.20;29.30;;;;;;4916354;29;20186;-73
2022/03/10 12:36:00;;;;;;;7.67;6.97;;;21.70;29.00;;;;;;4915403;29;20214;-75
2022/03/10 12:38:40;;;;;;;7.65;6.93;;;21.90;29.00;;;;;;4915620;29;20237;-76
2022/03/10 12:41:06;;;;;;;7.73;7.03;;;22.70;28.10;;;;;;4915964;29;20226;-74
2022/03/10 12:43:33;;;;;;;6.57;6.10;;;23.50;27.90;;;;;;4916256;29;20206;-73
2022/03/10 12:45:59;;;;;;;6.47;5.97;;;22.50;27.80;;;;;;4916083;29;20203;-74
2022/03/10 12:48:35;;;;;;;7.50;6.63;;;21.90;28.80;;;;;;4914577;29;20180;-74
2022/03/10 12:51:01;;;;;;;6.87;6.27;;;21.80;29.60;;;;;;4916232;29;20186;-74
2022/03/10 12:53:31;;;;;;;6.47;5.93;;;22.20;28.20;;;;;;4914654;29;20198;-75
2022/03/10 12:55:58;;;;;;;7.33;6.00;;;21.90;29.10;;;;;;4915769;29;20254;-74
2022/03/10 12:58:32;;;;;;;7.03;6.40;;;22.00;28.60;;;;;;4914083;29;20191;-75
2022/03/10 13:01:09;;;;;;;7.00;6.40;;;21.70;28.50;;;;;;4914148;29;20566;-75
2022/03/10 13:03:35;;;;;;;8.00;7.30;;;22.00;28.40;;;;;;4914697;29;20186;-74
2022/03/10 13:06:02;;;;;;;8.02;7.38;;;22.60;28.10;;;;;;4930836;29;20202;-73
2022/03/10 13:08:29;;;;;;;7.38;6.68;;;22.90;27.40;;;;;;4933163;29;20566;-74
2022/03/10 13:10:59;;;;;;;7.50;6.38;;;22.90;27.30;;;;;;4933123;29;20186;-74
2022/03/10 13:13:31;;;;;;;6.80;6.20;;;23.60;26.50;;;;;;4933961;29;20190;-75
2022/03/10 13:16:06;;;;;;;8.87;7.80;;;22.30;27.00;;;;;;4926961;29;20222;-74
2022/03/10 13:18:52;;;;;;;8.05;7.13;;;22.50;27.60;;;;;;4929840;29;20214;-75
2022/03/10 13:21:20;;;;;;;7.80;7.10;;;23.00;27.40;;;;;;4919460;29;20262;-74
2022/03/10 13:23:46;;;;;;;6.88;6.28;;;24.00;26.20;;;;;;4930347;29;20199;-72
2022/03/10 13:26:12;;;;;;;8.10;7.30;;;23.70;25.80;;;;;;4917232;29;20210;-77
2022/03/10 13:28:38;;;;;;;7.93;7.22;;;23.20;26.00;;;;;;4913745;29;20207;-74
2022/03/10 13:31:06;;;;;;;8.85;7.35;;;23.30;26.40;;;;;;4915501;29;20182;-73
2022/03/10 13:33:33;;;;;;;7.10;6.32;;;24.00;26.00;;;;;;4915172;29;20658;-74
2022/03/10 13:35:59;;;;;;;7.85;7.15;;;24.40;25.90;;;;;;4913969;29;20206;-75
2022/03/10 13:38:27;;;;;;;8.80;7.03;;;23.70;25.10;;;;;;4913582;29;20183;-75
2022/03/10 13:41:01;;;;;;;7.53;6.93;;;23.50;25.00;;;;;;4913711;29;20230;-74
2022/03/10 13:43:37;;;;;;;11.80;8.18;;;24.10;24.80;;;;;;4916039;29;20273;-75
2022/03/10 13:46:11;;;;;;;9.35;8.13;;;24.70;24.90;;;;;;4918085;29;20206;-76
2022/03/10 13:48:45;;;;;;;7.97;6.80;;;24.30;24.70;;;;;;4894311;29;20180;-77
2022/03/10 13:51:12;;;;;;;6.97;6.38;;;24.10;25.10;;;;;;4896234;29;20195;-74
2022/03/10 13:53:37;;;;;;;7.00;6.40;;;23.10;26.20;;;;;;4894491;29;20187;-74
2022/03/10 13:56:04;;;;;;;8.55;6.25;;;22.50;26.90;;;;;;4922822;29;20264;-74
2022/03/10 13:58:29;;;;;;;8.00;7.03;;;22.60;26.90;;;;;;4933304;29;20182;-75
2022/03/10 14:01:06;;;;;;;7.17;6.67;;;21.70;27.20;;;;;;4933044;29;20206;-71
2022/03/10 14:03:37;;;;;;;7.63;6.83;;;21.20;27.70;;;;;;4934140;29;20260;-74
2022/03/10 14:06:04;;;;;;;8.07;7.37;;;20.50;28.60;;;;;;4933380;29;20248;-73
2022/03/10 14:08:30;;;;;;;8.23;7.43;;;20.70;28.80;;;;;;4932565;29;20182;-74
2022/03/10 14:10:59;;;;;;;6.50;6.00;;;20.30;28.30;;;;;;4923904;29;20258;-74
2022/03/10 14:13:30;;;;;;;7.13;6.40;;;19.30;28.90;;;;;;4917051;29;20336;-73
2022/03/10 14:15:57;;;;;;;6.57;5.97;;;18.80;29.50;;;;;;4912596;29;20218;-73
2022/03/10 14:18:25;;;;;;;7.70;5.87;;;19.50;28.80;;;;;;4912968;29;20187;-72
2022/03/10 14:20:52;;;;;;;6.00;5.60;;;19.40;28.30;;;;;;4914165;29;20219;-72
2022/03/10 14:23:23;;;;;;;6.80;6.20;;;19.70;28.10;;;;;;4912686;29;20238;-73
2022/03/10 14:25:54;;;;;;;7.27;6.67;;;19.80;28.60;;;;;;4914239;29;20207;-73
2022/03/10 14:28:36;;;;;;;6.87;6.27;;;19.50;28.00;;;;;;4912876;29;20187;-73
2022/03/10 14:31:05;;;;;;;7.40;6.10;;;19.00;28.40;;;;;;4914006;29;20198;-74
2022/03/10 14:33:31;;;;;;;7.40;6.60;;;18.50;28.60;;;;;;4914099;29;20187;-72
2022/03/10 14:35:57;;;;;;;6.37;5.87;;;18.70;28.60;;;;;;4912186;29;20208;-73
2022/03/10 14:38:23;;;;;;;7.07;6.40;;;18.80;28.00;;;;;;4898642;29;20192;-72
2022/03/10 14:40:49;;;;;;;7.17;6.50;;;18.70;27.60;;;;;;4898928;29;20215;-73
2022/03/10 14:43:16;;;;;;;5.93;5.43;;;18.60;27.50;;;;;;4898011;29;20645;-72
2022/03/10 14:45:41;;;;;;;5.70;5.30;;;19.10;26.40;;;;;;4919166;29;20227;-72
2022/03/10 14:48:07;;;;;;;6.13;5.53;;;19.00;26.00;;;;;;4936431;29;20406;-73
2022/03/10 14:50:35;;;;;;;6.77;6.27;;;19.40;25.60;;;;;;4936866;29;20191;-73
2022/03/10 14:53:02;;;;;;;7.20;6.37;;;19.90;25.50;;;;;;4927979;29;20250;-75
2022/03/10 14:55:28;;;;;;;6.67;5.90;;;20.50;25.10;;;;;;4927066;29;20345;-72
2022/03/10 14:57:54;;;;;;;6.57;6.00;;;21.20;25.30;;;;;;4911016;29;20184;-72
2022/03/10 15:00:20;;;;;;;6.77;5.60;;;21.70;24.90;;;;;;4922831;29;20190;-72
2022/03/10 15:02:46;;;;;;;11.70;6.20;;;21.90;24.90;;;;;;4917422;29;20715;-75
2022/03/10 15:05:13;;;;;;;7.73;7.03;;;21.80;24.60;;;;;;4914630;29;20246;-73
2022/03/10 15:07:42;;;;;;;9.17;5.13;;;21.20;25.30;;;;;;4936304;29;20197;-73
2022/03/10 15:10:15;;;;;;;6.63;5.93;;;20.40;25.10;;;;;;4936761;29;20183;-75
2022/03/10 15:12:42;;;;;;;6.60;6.00;;;19.50;26.30;;;;;;4936638;29;20195;-73
2022/03/10 15:15:09;;;;;;;5.83;5.30;;;18.80;26.70;;;;;;4935835;29;20226;-73
2022/03/10 15:17:35;;;;;;;6.87;5.97;;;17.90;26.70;;;;;;4917203;29;20210;-73
2022/03/10 15:20:00;;;;;;;7.43;6.53;;;17.10;27.50;;;;;;4917893;29;20661;-73
2022/03/10 15:22:26;;;;;;;6.60;6.10;;;16.50;27.60;;;;;;4918459;29;20597;-72
2022/03/10 15:24:52;;;;;;;6.10;5.60;;;16.10;28.00;;;;;;4917497;29;20186;-73
2022/03/10 15:27:18;;;;;;;7.07;6.23;;;15.70;28.10;;;;;;4933844;29;20179;-73
2022/03/10 15:29:44;;;;;;;6.33;5.83;;;15.60;28.80;;;;;;4936097;29;20174;-73
2022/03/10 15:32:12;;;;;;;6.30;5.80;;;15.30;29.00;;;;;;4936268;29;20213;-73
2022/03/10 15:34:38;;;;;;;6.30;5.70;;;15.10;28.90;;;;;;4918745;29;20195;-73
2022/03/10 15:37:04;;;;;;;9.77;5.77;;;14.90;29.70;;;;;;4929422;29;20275;-74
2022/03/10 15:39:31;;;;;;;7.53;6.00;;;14.90;30.50;;;;;;4933791;29;20183;-73
2022/03/10 15:41:58;;;;;;;5.93;5.53;;;14.90;30.10;;;;;;4933873;29;20233;-73
2022/03/10 15:44:25;;;;;;;6.33;5.73;;;15.50;29.70;;;;;;4931312;29;20183;-73
2022/03/10 15:46:51;;;;;;;5.90;5.40;;;15.70;29.40;;;;;;4934243;29;20217;-72
2022/03/10 15:49:18;;;;;;;6.60;6.00;;;15.50;29.90;;;;;;4923607;29;20183;-72
2022/03/10 15:51:44;;;;;;;7.17;6.47;;;15.60;30.10;;;;;;4924865;29;20190;-73
2022/03/10 15:54:10;;;;;;;6.97;5.97;;;15.40;30.20;;;;;;4928638;29;20182;-72
2022/03/10 15:56:36;;;;;;;7.03;6.40;;;15.10;30.60;;;;;;4935761;29;20284;-72
2022/03/10 15:59:04;;;;;;;7.20;6.50;;;14.90;31.40;;;;;;4935380;29;20758;-75
2022/03/10 16:01:30;;;;;;;6.67;6.07;;;14.70;31.50;;;;;;4934465;29;20258;-74
2022/03/10 16:03:56;;;;;;;10.97;6.83;;;14.70;31.60;;;;;;4931681;29;20618;-72
2022/03/10 16:06:22;;;;;;;7.23;6.53;;;14.70;31.60;;;;;;4935216;29;20289;-72
2022/03/10 16:08:47;;;;;;;9.00;6.20;;;15.20;31.40;;;;;;4935290;29;20174;-73
2022/03/10 16:11:13;;;;;;;6.43;5.93;;;15.50;31.30;;;;;;4935628;29;20190;-73
2022/03/10 16:13:41;;;;;;;9.13;7.30;;;15.90;31.50;;;;;;4925259;29;20647;-73
2022/03/10 16:16:07;;;;;;;8.03;7.17;;;15.90;31.80;;;;;;4957173;23;20736;-74
2022/03/10 16:18:33;;;;;;;7.20;6.60;;;15.80;31.90;;;;;;4973000;28;20263;-74
2022/03/10 16:20:59;;;;;;;8.90;7.40;;;15.40;32.80;;;;;;4973826;28;20220;-73
2022/03/10 16:23:25;;;;;;;9.93;9.03;;;15.30;33.70;;;;;;4972154;28;20178;-74
2022/03/10 16:25:51;;;;;;;8.30;7.60;;;15.20;33.90;;;;;;4968102;28;20197;-73
2022/03/10 16:28:16;;;;;;;9.63;8.73;;;15.20;34.00;;;;;;4953923;29;20174;-72
2022/03/10 16:30:42;;;;;;;8.97;8.17;;;15.20;34.30;;;;;;4954439;29;20329;-71
2022/03/10 16:33:08;;;;;;;10.17;9.27;;;15.20;34.00;;;;;;4950191;28;20659;-72
2022/03/10 16:35:34;;;;;;;9.23;8.50;;;15.50;34.20;;;;;;4936106;29;20293;-72
2022/03/10 16:38:00;;;;;;;10.43;8.37;;;15.50;33.80;;;;;;4935122;29;20183;-72
2022/03/10 16:40:26;;;;;;;9.47;8.67;;;15.40;33.90;;;;;;4934047;29;20274;-71
2022/03/10 16:42:52;;;;;;;8.93;8.13;;;15.00;34.10;;;;;;4935480;29;20182;-72